Time;durP1;ratioP1;P1;durP2;ratioP2;P2;SDS_P1;SDS_P2;PMS_P1;PMS_P2;Temp;Humidity;BMP_temperature;BMP_pressure;BME280_temperature;BME280_humidity;BME280_pressure;Samples;Min_cycle;Max_cycle;Signal;HPM_P1;HPM_P2
2023/04/06 00:00:43;;;;;;;23.08;10.75;;;;;;;1.78;81.96;101570.47;4968683;28;20041;-71
2023/04/06 00:03:08;;;;;;;22.27;11.20;;;;;;;1.75;81.86;101572.31;5004080;28;20038;-71
2023/04/06 00:05:34;;;;;;;20.50;10.75;;;;;;;1.75;81.59;101568.91;4987236;28;20450;-71
2023/04/06 00:08:00;;;;;;;21.25;10.10;;;;;;;1.68;81.80;101570.16;4988109;28;20037;-71
2023/04/06 00:10:26;;;;;;;20.33;10.07;;;;;;;1.61;82.16;101563.69;5001279;28;20025;-71
2023/04/06 00:12:52;;;;;;;18.90;10.27;;;;;;;1.54;82.74;101561.47;5002648;28;20065;-71
2023/04/06 00:15:17;;;;;;;23.38;11.07;;;;;;;1.46;82.79;101568.66;4986498;28;20034;-70
2023/04/06 00:17:43;;;;;;;20.10;10.70;;;;;;;1.40;82.98;101560.50;5004108;28;20654;-70
2023/04/06 00:20:08;;;;;;;20.30;9.93;;;;;;;1.32;83.37;101564.28;5005238;28;20041;-71
2023/04/06 00:22:34;;;;;;;20.73;10.07;;;;;;;1.28;83.84;101557.66;5003390;28;20030;-71
2023/04/06 00:25:00;;;;;;;22.95;11.00;;;;;;;1.27;84.28;101553.44;4988852;28;20499;-71
2023/04/06 00:27:25;;;;;;;18.08;9.60;;;;;;;1.27;84.48;101560.28;4987275;28;20038;-71
2023/04/06 00:29:51;;;;;;;28.08;10.60;;;;;;;1.25;84.39;101552.69;4988680;28;20033;-71
2023/04/06 00:32:16;;;;;;;22.00;10.43;;;;;;;1.20;85.03;101546.97;4981034;28;22932;-71
2023/04/06 00:34:42;;;;;;;22.60;11.07;;;;;;;1.15;84.92;101546.41;4987345;28;20053;-71
2023/04/06 00:37:07;;;;;;;25.35;11.43;;;;;;;1.10;84.76;101548.38;4987722;28;20061;-71
2023/04/06 00:39:33;;;;;;;21.33;10.32;;;;;;;1.06;85.04;101542.56;4991730;28;20026;-70
2023/04/06 00:41:58;;;;;;;23.33;10.95;;;;;;;1.01;85.06;101543.72;4968768;28;20038;-71
2023/04/06 00:44:24;;;;;;;26.33;12.18;;;;;;;0.95;85.64;101540.53;4988672;28;20034;-71
2023/04/06 00:46:50;;;;;;;24.08;12.52;;;;;;;0.89;85.20;101545.97;4984731;28;20034;-71
2023/04/06 00:49:16;;;;;;;22.00;11.15;;;;;;;0.86;85.81;101535.88;4969841;28;20053;-71
2023/04/06 00:51:42;;;;;;;25.45;11.27;;;;;;;0.82;85.67;101533.56;4985404;28;20041;-71
2023/04/06 00:54:08;;;;;;;25.73;13.43;;;;;;;0.77;86.12;101528.66;4988770;28;20061;-71
2023/04/06 00:56:34;;;;;;;27.08;12.15;;;;;;;0.72;86.20;101528.09;4991926;28;20030;-70
2023/04/06 00:59:00;;;;;;;27.70;12.30;;;;;;;0.69;86.37;101518.00;4976470;28;20104;-71
2023/04/06 01:01:26;;;;;;;28.88;11.85;;;;;;;0.65;86.79;101521.63;4987353;28;20096;-71
2023/04/06 01:03:55;;;;;;;24.05;12.07;;;;;;;0.64;87.37;101523.34;4987941;28;20032;-70
2023/04/06 01:06:21;;;;;;;25.90;12.40;;;;;;;0.60;87.62;101519.28;4986061;28;20031;-71
2023/04/06 01:08:56;;;;;;;26.92;11.80;;;;;;;0.55;87.84;101509.31;4985159;28;20033;-71
2023/04/06 01:11:24;;;;;;;27.75;11.48;;;;;;;0.52;88.52;101511.16;4971440;28;20488;-70
2023/04/06 01:13:51;;;;;;;24.92;11.20;;;;;;;0.53;88.39;101508.56;5002350;28;20030;-70
2023/04/06 01:16:32;;;;;;;20.63;11.10;;;;;;;0.55;88.60;101501.66;4984306;28;20523;-71
2023/04/06 01:19:20;;;;;;;26.15;12.02;;;;;;;0.57;88.64;101501.56;4987035;28;20128;-71
2023/04/06 01:21:52;;;;;;;24.58;11.65;;;;;;;0.60;88.41;101503.16;4986463;28;20034;-71
2023/04/06 01:24:18;;;;;;;26.52;12.07;;;;;;;0.61;88.59;101502.25;5010188;28;20144;-71
2023/04/06 01:26:58;;;;;;;25.40;12.40;;;;;;;0.56;88.31;101493.06;4970558;28;20038;-71
2023/04/06 01:29:27;;;;;;;21.90;11.90;;;;;;;0.50;88.69;101498.47;4987056;28;20069;-71
2023/04/06 01:31:53;;;;;;;22.58;11.85;;;;;;;0.46;88.73;101493.59;4984136;28;20034;-71
2023/04/06 01:34:18;;;;;;;22.23;11.23;;;;;;;0.40;89.08;101492.19;4967099;28;20037;-71
2023/04/06 01:36:45;;;;;;;24.20;11.95;;;;;;;0.37;89.04;101482.91;4971188;28;20027;-70
2023/04/06 01:39:30;;;;;;;23.92;11.88;;;;;;;0.39;89.73;101486.22;4968983;28;20033;-70
2023/04/06 01:42:00;;;;;;;23.83;11.15;;;;;;;0.39;89.60;101482.84;4968058;28;20497;-71
2023/04/06 01:44:26;;;;;;;25.25;12.77;;;;;;;0.36;89.57;101485.56;4987047;28;20040;-71
2023/04/06 01:47:03;;;;;;;24.48;11.52;;;;;;;0.31;89.99;101480.66;4989849;28;20093;-71
2023/04/06 01:49:28;;;;;;;29.50;13.07;;;;;;;0.29;89.79;101489.31;4995832;28;20504;-71
2023/04/06 01:51:55;;;;;;;28.63;12.48;;;;;;;0.22;90.21;101472.63;4991711;28;20030;-71
2023/04/06 01:54:21;;;;;;;25.80;11.95;;;;;;;0.17;90.63;101475.38;4990949;28;20045;-70
2023/04/06 01:57:07;;;;;;;29.27;12.30;;;;;;;0.09;90.64;101478.28;4991919;28;20030;-71
2023/04/06 01:59:42;;;;;;;24.75;11.57;;;;;;;0.06;90.84;101470.81;4990643;28;20018;-70
2023/04/06 02:02:16;;;;;;;32.95;12.57;;;;;;;-0.01;91.48;101475.34;4988348;28;20120;-71
2023/04/06 02:04:51;;;;;;;26.35;12.98;;;;;;;-0.04;91.51;101469.56;4990774;28;20430;-70
2023/04/06 02:07:17;;;;;;;24.30;12.90;;;;;;;-0.09;91.75;101467.25;4986641;28;20042;-71
2023/04/06 02:09:43;;;;;;;28.25;13.02;;;;;;;-0.10;92.25;101463.03;4990909;28;20511;-70
2023/04/06 02:12:15;;;;;;;26.03;12.97;;;;;;;-0.11;92.04;101465.66;4969315;28;20119;-71
2023/04/06 02:14:40;;;;;;;33.88;13.35;;;;;;;-0.13;92.44;101468.28;5004603;28;20116;-70
2023/04/06 02:17:06;;;;;;;27.55;13.73;;;;;;;-0.11;92.25;101469.03;4987428;28;20052;-71
2023/04/06 02:19:31;;;;;;;26.95;12.15;;;;;;;-0.12;92.63;101467.38;4993282;28;20033;-71
2023/04/06 02:21:56;;;;;;;23.75;11.63;;;;;;;-0.14;92.11;101469.16;5002705;28;20041;-71
2023/04/06 02:24:22;;;;;;;26.80;13.25;;;;;;;-0.21;92.07;101465.25;4985486;28;20041;-70
2023/04/06 02:26:48;;;;;;;28.17;13.38;;;;;;;-0.22;92.26;101466.97;5004211;28;20412;-71
2023/04/06 02:29:13;;;;;;;26.83;12.90;;;;;;;-0.23;92.52;101461.94;4989978;28;20471;-70
2023/04/06 02:31:39;;;;;;;24.98;12.45;;;;;;;-0.22;92.61;101455.97;4985608;28;20496;-71
2023/04/06 02:34:07;;;;;;;28.80;13.50;;;;;;;-0.24;92.76;101461.13;5002945;28;20502;-71
2023/04/06 02:36:32;;;;;;;27.45;12.40;;;;;;;-0.31;92.73;101454.63;4988498;28;20033;-71
2023/04/06 02:38:58;;;;;;;27.38;13.45;;;;;;;-0.33;93.04;101450.53;5005768;28;20119;-71
2023/04/06 02:41:24;;;;;;;27.17;12.73;;;;;;;-0.34;93.29;101454.81;5002920;28;20045;-71
2023/04/06 02:43:49;;;;;;;27.38;11.75;;;;;;;-0.33;93.58;101458.16;4990983;28;20472;-70
2023/04/06 02:46:34;;;;;;;27.77;12.45;;;;;;;-0.33;93.33;101458.16;4987671;28;20547;-70
2023/04/06 02:49:00;;;;;;;37.00;14.27;;;;;;;-0.36;93.23;101455.75;5005857;28;20036;-70
2023/04/06 02:51:27;;;;;;;24.58;13.15;;;;;;;-0.40;93.42;101457.59;5001423;28;20042;-71
2023/04/06 02:53:59;;;;;;;37.55;15.63;;;;;;;-0.42;92.46;101454.31;4988641;28;20026;-70
2023/04/06 02:56:24;;;;;;;27.85;13.55;;;;;;;-0.46;92.83;101451.06;4988518;28;20076;-71
2023/04/06 02:58:51;;;;;;;36.20;15.07;;;;;;;-0.45;92.87;101460.38;4971824;28;20041;-71
2023/04/06 03:01:17;;;;;;;33.97;15.82;;;;;;;-0.43;93.30;101448.38;5002247;28;20045;-70
2023/04/06 03:03:43;;;;;;;30.35;14.88;;;;;;;-0.40;93.00;101453.34;4987521;28;20026;-71
2023/04/06 03:06:16;;;;;;;28.83;13.65;;;;;;;-0.43;93.07;101450.13;5006394;28;20515;-70
2023/04/06 03:08:42;;;;;;;32.95;14.27;;;;;;;-0.45;93.29;101449.34;4985735;28;20052;-70
2023/04/06 03:11:08;;;;;;;28.65;13.50;;;;;;;-0.53;92.98;101443.75;4989040;28;20050;-70
2023/04/06 03:13:40;;;;;;;27.33;13.00;;;;;;;-0.60;93.55;101451.69;4990290;28;20018;-70
2023/04/06 03:16:06;;;;;;;28.45;12.65;;;;;;;-0.61;93.96;101446.66;4986794;28;20036;-71
2023/04/06 03:18:32;;;;;;;30.30;14.10;;;;;;;-0.62;94.16;101455.22;4973998;28;20033;-71
2023/04/06 03:20:59;;;;;;;30.75;14.75;;;;;;;-0.67;93.82;101450.28;5001019;28;20552;-70
2023/04/06 03:23:33;;;;;;;35.65;15.00;;;;;;;-0.70;94.45;101449.59;5006560;28;20029;-71
2023/04/06 03:26:01;;;;;;;30.58;15.27;;;;;;;-0.67;94.75;101454.56;4986931;28;20049;-70
2023/04/06 03:28:27;;;;;;;31.30;14.88;;;;;;;-0.67;94.39;101447.75;4991630;28;20484;-70
2023/04/06 03:30:56;;;;;;;37.08;15.93;;;;;;;-0.63;94.78;101449.25;4986728;28;20038;-71
2023/04/06 03:33:39;;;;;;;;;;;;;;;-0.60;94.58;101453.41;4983912;28;20030;-71
2023/04/06 03:36:06;;;;;;;35.75;16.55;;;;;;;-0.60;94.36;101450.88;4990163;28;20283;-71
2023/04/06 03:38:36;;;;;;;34.30;15.57;;;;;;;-0.58;95.00;101451.63;4988348;28;20474;-71
2023/04/06 03:41:08;;;;;;;33.30;15.85;;;;;;;-0.57;94.85;101445.63;5002483;28;20824;-71
2023/04/06 03:43:34;;;;;;;35.42;16.02;;;;;;;-0.60;95.16;101441.50;4992087;28;20033;-71
2023/04/06 03:45:59;;;;;;;33.92;15.00;;;;;;;-0.59;94.99;101438.03;4987719;28;20034;-71
2023/04/06 03:48:26;;;;;;;36.03;16.60;;;;;;;-0.57;95.03;101443.06;4988881;28;20036;-71
2023/04/06 03:50:52;;;;;;;36.40;15.40;;;;;;;-0.55;95.06;101445.56;4987662;28;20042;-71
2023/04/06 03:53:17;;;;;;;34.58;14.57;;;;;;;-0.56;95.05;101441.38;5004587;28;20503;-71
2023/04/06 03:55:43;;;;;;;33.67;15.70;;;;;;;-0.56;94.73;101436.28;5003679;28;20045;-71
2023/04/06 03:58:08;;;;;;;32.40;15.20;;;;;;;-0.58;94.83;101428.69;4988757;28;20025;-71
2023/04/06 04:00:34;;;;;;;37.10;15.15;;;;;;;-0.59;95.03;101440.59;4971771;28;20485;-71
2023/04/06 04:03:00;;;;;;;39.53;15.70;;;;;;;-0.56;94.88;101438.81;4988270;28;20037;-71
2023/04/06 04:05:27;;;;;;;36.50;15.63;;;;;;;-0.56;95.16;101438.81;4984853;28;20056;-71
2023/04/06 04:07:52;;;;;;;35.97;15.73;;;;;;;-0.53;95.11;101442.03;5007015;28;20034;-70
2023/04/06 04:10:20;;;;;;;30.38;14.13;;;;;;;-0.55;94.67;101438.72;4986257;28;20038;-71
2023/04/06 04:12:45;;;;;;;32.47;15.73;;;;;;;-0.55;95.44;101430.25;5024338;22;20050;-72
2023/04/06 04:15:11;;;;;;;35.13;15.60;;;;;;;-0.48;94.99;101435.00;4990815;28;20041;-74
2023/04/06 04:17:36;;;;;;;38.22;16.50;;;;;;;-0.47;95.28;101430.75;4995321;28;20403;-73
2023/04/06 04:20:02;;;;;;;35.20;13.90;;;;;;;-0.53;95.02;101426.75;5021388;28;20056;-73
2023/04/06 04:22:28;;;;;;;33.22;14.95;;;;;;;-0.56;95.13;101432.00;5008022;28;20121;-73
2023/04/06 04:24:53;;;;;;;35.20;16.52;;;;;;;-0.57;95.72;101425.22;4978887;28;20042;-72
2023/04/06 04:27:20;;;;;;;37.40;15.45;;;;;;;-0.60;95.98;101431.31;4990928;28;20031;-73
2023/04/06 04:29:48;;;;;;;36.67;15.02;;;;;;;-0.59;95.84;101434.66;4972156;28;20068;-72
2023/04/06 04:32:14;;;;;;;31.40;14.77;;;;;;;-0.62;95.92;101429.72;4980668;28;20035;-73
2023/04/06 04:34:40;;;;;;;35.13;15.00;;;;;;;-0.63;96.43;101433.97;4994779;28;20092;-73
2023/04/06 04:37:07;;;;;;;35.72;15.25;;;;;;;-0.65;96.27;101433.22;4969799;28;20150;-75
2023/04/06 04:39:50;;;;;;;38.10;15.18;;;;;;;-0.67;96.67;101431.66;4967844;28;20027;-72
2023/04/06 04:42:15;;;;;;;35.30;14.85;;;;;;;-0.68;96.72;101428.28;4994650;28;20086;-73
2023/04/06 04:44:46;;;;;;;31.35;14.38;;;;;;;-0.68;97.00;101425.72;4969681;28;20061;-72
2023/04/06 04:47:13;;;;;;;36.25;15.38;;;;;;;-0.66;97.31;101423.94;4966789;28;20069;-75
2023/04/06 04:49:43;;;;;;;34.80;16.08;;;;;;;-0.61;97.25;101429.63;5006635;28;20033;-73
2023/04/06 04:52:11;;;;;;;39.75;16.92;;;;;;;-0.62;97.48;101432.28;4985775;28;21939;-73
2023/04/06 04:54:56;;;;;;;42.78;17.50;;;;;;;-0.62;97.79;101440.75;4989073;28;20374;-73
2023/04/06 04:57:26;;;;;;;40.58;18.52;;;;;;;-0.53;97.36;101436.94;4976194;28;20153;-75
2023/04/06 04:59:51;;;;;;;41.47;17.23;;;;;;;-0.53;97.26;101444.56;4968610;28;20023;-73
2023/04/06 05:02:18;;;;;;;43.03;17.08;;;;;;;-0.36;96.92;101451.47;4964888;28;20093;-73
2023/04/06 05:05:06;;;;;;;34.22;14.68;;;;;;;-0.25;96.02;101444.16;4985402;28;20494;-73
2023/04/06 05:07:32;;;;;;;39.83;17.15;;;;;;;-0.31;95.78;101444.44;4976593;28;20031;-73
2023/04/06 05:09:59;;;;;;;44.28;16.42;;;;;;;-0.29;95.63;101452.03;4951418;28;20088;-73
2023/04/06 05:12:29;;;;;;;37.85;16.60;;;;;;;-0.24;95.73;101445.81;4951761;28;20560;-72
2023/04/06 05:15:15;;;;;;;43.88;19.33;;;;;;;-0.03;94.85;101438.09;4983451;28;20034;-73
2023/04/06 05:17:40;;;;;;;42.85;18.15;;;;;;;0.18;93.47;101442.16;4983614;28;20507;-76
2023/04/06 05:20:08;;;;;;;43.72;19.02;;;;;;;0.23;92.44;101444.50;4990398;28;20655;-75
2023/04/06 05:22:42;;;;;;;43.38;20.38;;;;;;;0.27;91.95;101445.19;4971879;28;20030;-75
2023/04/06 05:25:10;;;;;;;56.17;21.15;;;;;;;0.19;92.03;101440.44;5000966;28;20026;-72
2023/04/06 05:27:37;;;;;;;47.30;20.75;;;;;;;0.31;91.65;101439.84;5000048;28;20081;-75
2023/04/06 05:30:07;;;;;;;46.83;19.52;;;;;;;0.39;90.83;101436.91;5007067;28;20400;-73
2023/04/06 05:32:39;;;;;;;50.83;20.33;;;;;;;0.37;91.15;101436.19;4984101;28;20121;-73
2023/04/06 05:35:05;;;;;;;44.03;19.27;;;;;;;0.50;90.54;101438.97;5000386;28;20527;-73
2023/04/06 05:37:31;;;;;;;46.65;18.10;;;;;;;0.59;89.46;101441.06;4955026;28;20033;-72
2023/04/06 05:39:57;;;;;;;42.65;17.65;;;;;;;0.71;88.39;101443.00;5021940;28;20018;-73
2023/04/06 05:42:23;;;;;;;37.95;17.15;;;;;;;0.83;88.15;101430.50;4978335;28;20042;-73
2023/04/06 05:44:52;;;;;;;38.53;16.98;;;;;;;0.84;87.32;101429.63;4976946;28;20666;-75
2023/04/06 05:47:18;;;;;;;39.88;16.80;;;;;;;0.84;88.12;101433.00;4956135;28;20038;-73
2023/04/06 05:49:48;;;;;;;32.97;15.45;;;;;;;1.02;87.64;101425.28;4987040;28;20493;-75
2023/04/06 05:52:22;;;;;;;40.83;15.55;;;;;;;1.06;87.41;101435.28;4983416;28;20039;-75
2023/04/06 05:54:48;;;;;;;38.08;16.65;;;;;;;1.13;87.33;101441.75;4967868;28;20494;-73
2023/04/06 05:57:16;;;;;;;38.80;16.35;;;;;;;1.28;86.46;101436.72;5002240;28;20070;-72
2023/04/06 05:59:42;;;;;;;29.42;14.90;;;;;;;1.30;86.28;101443.41;4974632;28;20030;-74
2023/04/06 06:02:09;;;;;;;38.97;16.38;;;;;;;1.46;85.57;101435.75;5001019;28;20035;-73
2023/04/06 06:04:39;;;;;;;33.10;15.27;;;;;;;1.51;85.71;101432.97;4992284;28;20093;-75
2023/04/06 06:14:43;;;;;;;35.40;14.10;;;;;;;1.87;84.39;101429.34;4989222;28;20084;-73
2023/04/06 09:00:20;;;;;;;25.05;12.35;;;;;;;8.22;61.15;101369.69;4987708;28;20049;-74
2023/04/06 10:15:16;;;;;;;24.63;10.98;;;;;;;11.65;50.25;101340.75;5031393;23;20055;-77
2023/04/06 10:17:42;;;;;;;26.85;11.98;;;;;;;11.68;49.59;101338.66;5097478;28;20064;-77
2023/04/06 10:20:10;;;;;;;29.30;12.25;;;;;;;11.59;51.32;101334.34;5102220;28;20031;-76
2023/04/06 10:22:50;;;;;;;28.35;13.20;;;;;;;11.84;52.12;101340.56;5092848;28;20052;-77
2023/04/06 10:25:16;;;;;;;32.13;13.75;;;;;;;11.74;52.56;101337.25;5083553;28;20665;-77
2023/04/06 10:27:41;;;;;;;24.70;11.55;;;;;;;11.76;51.18;101347.50;5087293;28;20057;-77
2023/04/06 10:30:07;;;;;;;30.23;12.48;;;;;;;11.73;51.03;101343.38;5079616;28;20043;-77
2023/04/06 10:32:37;;;;;;;25.27;11.27;;;;;;;11.95;51.30;101344.72;5082106;28;20032;-76
2023/04/06 10:35:11;;;;;;;28.75;10.57;;;;;;;11.88;49.96;101341.06;5075892;28;22002;-80
2023/04/06 10:37:49;;;;;;;26.83;10.98;;;;;;;11.88;50.86;101346.28;5092830;27;20074;-76
2023/04/06 10:40:25;;;;;;;27.17;11.57;;;;;;;11.82;51.60;101352.06;5087606;28;20047;-77
2023/04/06 10:42:52;;;;;;;32.08;11.93;;;;;;;11.88;51.88;101346.28;5104910;28;20061;-76
2023/04/06 10:45:25;;;;;;;27.27;12.18;;;;;;;11.83;52.85;101345.94;5113839;27;20019;-78
2023/04/06 10:47:53;;;;;;;;;;;;;;;11.86;53.85;101346.41;5107758;27;20067;-77
2023/04/06 10:50:20;;;;;;;24.08;10.90;;;;;;;11.90;53.04;101351.34;5103010;28;20010;-77
2023/04/06 10:52:48;;;;;;;21.63;10.10;;;;;;;12.04;52.21;101349.03;5108636;27;20039;-77
2023/04/06 10:55:14;;;;;;;28.90;13.32;;;;;;;12.19;53.94;101346.69;5080007;27;20031;-77
2023/04/06 10:57:40;;;;;;;33.75;14.68;;;;;;;12.19;53.96;101344.09;5103609;27;20412;-77
2023/04/06 11:00:10;;;;;;;32.35;13.82;;;;;;;12.16;52.70;101341.78;5102433;28;20058;-76
2023/04/06 11:02:37;;;;;;;42.63;19.45;;;;;;;12.15;53.36;101345.38;5084673;28;20370;-76
2023/04/06 11:05:03;;;;;;;27.75;12.55;;;;;;;12.11;53.72;101345.81;5095113;28;20588;-76
2023/04/06 11:07:30;;;;;;;34.42;16.65;;;;;;;12.07;55.16;101340.94;5087078;27;20032;-75
2023/04/06 11:09:56;;;;;;;43.15;19.42;;;;;;;12.27;53.33;101338.91;5107940;27;20023;-76
2023/04/06 11:12:26;;;;;;;37.10;17.05;;;;;;;12.46;53.42;101332.69;5084548;28;20051;-77
2023/04/06 11:15:08;;;;;;;38.30;15.90;;;;;;;12.49;53.08;101338.53;5098997;27;20047;-77
2023/04/06 11:17:36;;;;;;;42.63;18.73;;;;;;;12.57;51.61;101339.41;5109986;27;20039;-76
2023/04/06 11:20:04;;;;;;;57.40;24.45;;;;;;;12.56;51.36;101334.34;5109697;27;20035;-76
2023/04/06 11:22:31;;;;;;;106.35;46.25;;;;;;;12.70;52.05;101330.38;5089844;27;20041;-76
2023/04/06 11:25:06;;;;;;;35.80;16.52;;;;;;;12.66;51.20;101329.84;5085216;27;20043;-77
2023/04/06 11:27:33;;;;;;;29.45;13.20;;;;;;;12.58;48.34;101329.81;5100554;28;20113;-78
2023/04/06 11:30:03;;;;;;;29.05;13.25;;;;;;;12.46;48.15;101327.47;5104204;27;20066;-76
2023/04/06 11:32:29;;;;;;;27.80;12.05;;;;;;;12.51;47.64;101316.63;5092711;27;20035;-77
2023/04/06 11:34:54;;;;;;;94.45;37.17;;;;;;;12.75;49.33;101313.31;5084122;27;20023;-77
2023/04/06 11:37:20;;;;;;;88.47;31.65;;;;;;;12.79;48.98;101319.00;5088907;28;20531;-76
2023/04/06 11:39:50;;;;;;;29.20;11.43;;;;;;;12.85;49.24;101318.38;5107343;27;20039;-77
2023/04/06 11:42:26;;;;;;;32.95;15.20;;;;;;;12.88;49.50;101315.44;5080244;28;20050;-77
2023/04/06 11:44:59;;;;;;;25.48;11.88;;;;;;;12.94;48.71;101320.03;5086158;28;20030;-76
2023/04/06 11:47:36;;;;;;;20.08;8.85;;;;;;;12.70;50.22;101325.16;5067652;28;20044;-76
2023/04/06 11:50:09;;;;;;;37.30;18.40;;;;;;;12.63;49.78;101312.75;5104794;27;20378;-75
2023/04/06 11:52:34;;;;;;;27.40;11.43;;;;;;;12.57;49.17;101317.78;5093643;28;20044;-77
2023/04/06 11:55:10;;;;;;;19.05;9.38;;;;;;;12.60;49.96;101313.09;5090840;28;20040;-77
2023/04/06 11:57:36;;;;;;;30.15;13.27;;;;;;;12.63;50.97;101315.34;5091260;28;20040;-77
2023/04/06 12:00:02;;;;;;;37.00;17.02;;;;;;;12.40;50.66;101314.31;5092082;28;20093;-75
2023/04/06 12:02:32;;;;;;;30.45;16.08;;;;;;;12.38;51.93;101308.44;5103006;27;20489;-76
2023/04/06 12:04:57;;;;;;;29.60;15.23;;;;;;;12.42;51.76;101314.97;5097031;28;20616;-76
2023/04/06 12:07:23;;;;;;;17.48;9.55;;;;;;;12.56;51.74;101316.16;5099602;27;20036;-76
2023/04/06 12:09:48;;;;;;;22.15;10.30;;;;;;;12.46;51.61;101322.28;5089867;27;20031;-77
2023/04/06 12:12:14;;;;;;;13.75;6.90;;;;;;;12.29;50.47;101311.97;5092718;28;20044;-77
2023/04/06 12:14:39;;;;;;;15.82;7.13;;;;;;;12.41;51.11;101315.91;5101475;28;20061;-77
2023/04/06 12:17:05;;;;;;;18.83;9.07;;;;;;;12.51;51.31;101313.19;5103459;28;20062;-77
2023/04/06 12:19:30;;;;;;;23.13;8.57;;;;;;;12.46;52.34;101313.66;5086351;28;20032;-77
2023/04/06 12:21:57;;;;;;;18.17;8.45;;;;;;;12.26;51.76;101324.31;5102928;27;20039;-77
2023/04/06 12:24:23;;;;;;;15.30;6.90;;;;;;;12.30;52.56;101317.03;5110537;27;20035;-77
2023/04/06 12:26:48;;;;;;;14.32;7.40;;;;;;;11.98;52.70;101320.22;5076930;28;20032;-77
2023/04/06 12:29:14;;;;;;;24.42;12.27;;;;;;;12.06;54.29;101320.28;5086063;28;20054;-76
2023/04/06 12:31:42;;;;;;;15.23;8.48;;;;;;;12.05;53.69;101321.25;5102307;28;20078;-76
2023/04/06 12:34:08;;;;;;;10.95;6.38;;;;;;;11.99;53.26;101309.66;5089584;28;20564;-77
2023/04/06 12:36:33;;;;;;;28.80;13.85;;;;;;;11.89;52.51;101314.13;5109534;27;20050;-76
2023/04/06 12:39:00;;;;;;;11.77;6.57;;;;;;;11.99;53.54;101312.28;5082266;28;20147;-78
2023/04/06 12:41:26;;;;;;;10.00;6.28;;;;;;;11.73;53.60;101306.22;5101222;28;20040;-76
2023/04/06 12:43:51;;;;;;;18.05;7.13;;;;;;;11.59;54.65;101320.56;5105462;28;20033;-76
2023/04/06 12:46:17;;;;;;;24.75;10.68;;;;;;;11.52;55.67;101311.72;5085600;28;20478;-77
2023/04/06 12:48:42;;;;;;;13.68;5.55;;;;;;;11.45;57.28;101316.69;5103240;28;20031;-77
2023/04/06 12:51:08;;;;;;;13.50;5.07;;;;;;;11.38;57.21;101313.88;5083788;28;20636;-77
2023/04/06 12:53:34;;;;;;;11.93;5.20;;;;;;;11.54;57.22;101313.19;5087149;28;20034;-77
2023/04/06 12:56:02;;;;;;;19.25;9.95;;;;;;;11.19;60.68;101309.66;5109588;28;20043;-77
2023/04/06 12:58:29;;;;;;;14.07;6.85;;;;;;;11.36;63.26;101313.22;5104699;28;20032;-76
2023/04/06 13:00:55;;;;;;;15.57;6.88;;;;;;;10.95;63.81;101320.59;5087043;28;20040;-75
2023/04/06 13:03:22;;;;;;;15.30;7.20;;;;;;;11.02;65.49;101324.25;5080071;28;20051;-77
2023/04/06 13:05:49;;;;;;;16.25;8.00;;;;;;;11.20;66.75;101311.28;5088331;28;20138;-77
2023/04/06 13:08:15;;;;;;;19.45;10.25;;;;;;;11.15;68.48;101315.28;5099843;28;20036;-77
2023/04/06 13:10:47;;;;;;;19.92;10.77;;;;;;;11.09;68.73;101320.13;5084335;28;20078;-76
2023/04/06 13:13:14;;;;;;;16.08;8.35;;;;;;;11.06;70.33;101312.59;5089345;28;20159;-77
2023/04/06 13:15:40;;;;;;;21.63;10.23;;;;;;;10.78;70.17;101317.00;5099483;28;20051;-76
2023/04/06 13:18:05;;;;;;;16.65;8.43;;;;;;;10.62;71.61;101309.84;5099515;28;20489;-76
2023/04/06 13:20:31;;;;;;;16.13;7.15;;;;;;;10.60;71.82;101306.56;5088221;28;20050;-77
2023/04/06 13:22:56;;;;;;;15.23;8.60;;;;;;;10.75;72.13;101303.50;5086419;28;20112;-77
2023/04/06 13:25:21;;;;;;;14.15;8.02;;;;;;;10.73;72.63;101302.84;5066811;28;20032;-77
2023/04/06 13:27:48;;;;;;;23.38;11.65;;;;;;;10.81;73.83;101305.50;5081739;28;20016;-76
2023/04/06 13:30:14;;;;;;;13.27;7.38;;;;;;;10.74;73.49;101304.44;5086359;28;20031;-76
2023/04/06 13:46:02;;;;;;;16.23;8.93;;;;;;;10.24;78.22;101298.63;5122112;27;20039;-78
2023/04/06 13:48:27;;;;;;;20.05;9.63;;;;;;;10.41;78.58;101302.28;5093948;27;20035;-78
2023/04/06 13:50:53;;;;;;;19.90;9.20;;;;;;;10.32;79.00;101300.53;5090818;27;20035;-78
2023/04/06 13:53:19;;;;;;;13.20;7.43;;;;;;;10.30;77.34;101295.53;5088287;28;20386;-78
2023/04/06 13:55:52;;;;;;;15.68;7.78;;;;;;;10.13;77.14;101301.38;5102383;27;20032;-78
2023/04/06 13:58:17;;;;;;;13.55;6.63;;;;;;;9.96;77.62;101302.94;5111407;28;20027;-77
2023/04/06 14:00:43;;;;;;;14.10;6.97;;;;;;;10.01;79.34;101292.97;5108680;28;20043;-78
2023/04/06 14:03:08;;;;;;;30.63;13.82;;;;;;;9.86;80.12;101297.78;5092227;28;20035;-79
2023/04/06 14:05:34;;;;;;;13.23;7.63;;;;;;;9.65;78.27;101297.94;5068482;28;20059;-76
2023/04/06 14:07:59;;;;;;;15.30;8.05;;;;;;;9.65;80.52;101289.38;5077243;28;20032;-78
2023/04/06 14:10:27;;;;;;;15.32;6.88;;;;;;;9.66;79.55;101294.41;5091033;28;20546;-77
2023/04/06 14:12:52;;;;;;;14.82;7.13;;;;;;;9.63;81.26;101296.47;5092211;28;20158;-77
2023/04/06 14:15:18;;;;;;;15.63;8.25;;;;;;;9.68;83.21;101291.66;5093438;28;20039;-77
2023/04/06 14:17:44;;;;;;;19.25;8.73;;;;;;;9.57;84.25;101292.63;5087491;27;20516;-76
2023/04/06 14:20:13;;;;;;;19.70;9.38;;;;;;;9.59;84.23;101293.31;5078021;28;20024;-77
2023/04/06 14:22:41;;;;;;;17.65;8.27;;;;;;;9.60;83.35;101294.94;5085559;28;20066;-78
2023/04/06 14:25:07;;;;;;;17.52;8.95;;;;;;;9.51;81.44;101291.41;5106240;28;20660;-77
2023/04/06 14:27:32;;;;;;;15.95;8.82;;;;;;;9.52;83.74;101293.03;5076846;28;20047;-77
2023/04/06 14:29:57;;;;;;;18.00;8.60;;;;;;;9.46;84.28;101296.19;5074607;28;20024;-78
2023/04/06 14:32:24;;;;;;;21.40;9.43;;;;;;;9.35;85.36;101281.59;5075231;28;20031;-77
2023/04/06 14:34:49;;;;;;;15.63;8.60;;;;;;;9.41;86.31;101284.59;5112070;27;20023;-77
2023/04/06 14:37:16;;;;;;;15.32;9.50;;;;;;;9.36;84.86;101279.81;5088812;27;20504;-78
2023/04/06 14:39:41;;;;;;;19.45;9.05;;;;;;;9.36;85.92;101279.81;5097475;27;20058;-77
2023/04/06 14:42:07;;;;;;;20.05;9.40;;;;;;;9.21;86.32;101276.00;5091901;28;20389;-77
2023/04/06 14:44:33;;;;;;;17.85;9.30;;;;;;;9.22;86.49;101267.31;5103924;27;20032;-77
2023/04/06 14:46:58;;;;;;;17.92;8.95;;;;;;;9.24;88.67;101273.16;5087140;28;20047;-77
2023/04/06 14:49:24;;;;;;;19.88;9.18;;;;;;;9.13;88.87;101268.91;5091018;27;20030;-78
2023/04/06 14:51:51;;;;;;;22.48;8.98;;;;;;;9.11;88.78;101265.66;5106765;28;20039;-76
2023/04/06 14:54:16;;;;;;;19.30;9.77;;;;;;;9.07;90.79;101262.50;5087760;28;20126;-76
2023/04/06 14:56:42;;;;;;;18.25;9.73;;;;;;;9.13;91.83;101266.31;5084396;28;20062;-76
2023/04/06 14:59:08;;;;;;;14.90;8.35;;;;;;;9.17;89.56;101259.94;5090204;28;20062;-77
2023/04/06 15:01:37;;;;;;;18.45;9.50;;;;;;;9.18;90.90;101265.94;5071704;28;20508;-77
2023/04/06 15:04:03;;;;;;;18.92;9.15;;;;;;;9.07;91.64;101257.34;5097700;28;20114;-76
2023/04/06 15:06:30;;;;;;;18.42;9.10;;;;;;;9.06;90.34;101258.31;5089635;28;20040;-78
2023/04/06 15:08:55;;;;;;;17.38;9.23;;;;;;;9.03;91.53;101255.16;5090945;28;20036;-77
2023/04/06 15:11:21;;;;;;;16.08;8.60;;;;;;;9.06;91.58;101255.72;5089917;28;20036;-77
2023/04/06 15:13:46;;;;;;;23.67;10.20;;;;;;;8.95;92.47;101248.09;5093748;28;20034;-76
2023/04/06 15:16:14;;;;;;;16.48;8.98;;;;;;;8.90;92.14;101253.63;5074897;28;20061;-77
2023/04/06 15:18:40;;;;;;;16.77;8.30;;;;;;;8.90;92.06;101252.84;5072976;28;20504;-77
2023/04/06 15:21:06;;;;;;;18.75;8.63;;;;;;;8.89;88.94;101257.19;5091993;28;20071;-77
2023/04/06 15:23:33;;;;;;;16.08;8.38;;;;;;;8.87;91.25;101260.84;5088836;28;20408;-77
2023/04/06 15:26:00;;;;;;;17.85;8.32;;;;;;;8.84;92.94;101261.13;5071422;28;20432;-77
2023/04/06 15:28:26;;;;;;;21.60;9.52;;;;;;;8.87;93.86;101256.50;5106311;27;20066;-77
2023/04/06 15:30:53;;;;;;;18.42;9.13;;;;;;;8.86;94.40;101259.22;5069566;28;20048;-76
2023/04/06 15:33:20;;;;;;;26.42;9.18;;;;;;;8.83;93.26;101256.91;5106891;28;20400;-76